BAW243 EGKK-EKCH
Flight info
| Callsign | BAW243 |
|---|---|
| Flight time | N/A |
| Altitude | 39000 |
| Route | FRANE1Z FRANE M604 PAAVO Q295 SOMVA DCT MAVAS DCT DOSUR DCT TALSA P729 TUDLO TUDLO3C |
| Aircraft | A20N/M-SDE2E3FGHIRWXY/LB1 |
Departure
| Time | 2026-05-06 19:50 |
|---|---|
| Airport | London Gatwick Airport (EGKK) |
Arrival
| Time | N/A |
|---|---|
| Airport | Copenhagen Kastrup Airport (EKCH) |
| Time | Latitude | Longitude | Altitude | Speed | Heading |
|---|---|---|---|---|---|
| 2026-05-06 19:15 | 51.15494 | -0.16906 | 212 ft | 0 kts | 349° |
| 2026-05-06 19:36 | 51.15493 | -0.16905 | 205 ft | 2 kts | 349° |
| 2026-05-06 19:36 | 51.15477 | -0.16900 | 217 ft | 2 kts | 344° |
| 2026-05-06 19:37 | 51.15461 | -0.16891 | 208 ft | 2 kts | 334° |
| 2026-05-06 19:37 | 51.15448 | -0.16876 | 216 ft | 2 kts | 292° |
| 2026-05-06 19:37 | 51.15446 | -0.16855 | 215 ft | 1 kts | 258° |
| 2026-05-06 19:37 | 51.15446 | -0.16852 | 216 ft | 0 kts | 257° |
| 2026-05-06 19:39 | 51.15445 | -0.16859 | 210 ft | 5 kts | 257° |
| 2026-05-06 19:39 | 51.15423 | -0.17019 | 205 ft | 20 kts | 257° |
| 2026-05-06 19:39 | 51.15392 | -0.17178 | 208 ft | 13 kts | 246° |
| 2026-05-06 19:40 | 51.15363 | -0.17328 | 209 ft | 14 kts | 252° |
| 2026-05-06 19:40 | 51.15297 | -0.17440 | 207 ft | 15 kts | 257° |
| 2026-05-06 19:40 | 51.15278 | -0.17624 | 204 ft | 19 kts | 257° |
| 2026-05-06 19:40 | 51.15246 | -0.17847 | 205 ft | 22 kts | 257° |
| 2026-05-06 19:41 | 51.15211 | -0.18104 | 208 ft | 23 kts | 258° |
| 2026-05-06 19:41 | 51.15181 | -0.18367 | 209 ft | 26 kts | 258° |
| 2026-05-06 19:41 | 51.15141 | -0.18659 | 207 ft | 28 kts | 257° |
| 2026-05-06 19:41 | 51.15099 | -0.18964 | 213 ft | 27 kts | 257° |
| 2026-05-06 19:42 | 51.15067 | -0.19198 | 209 ft | 22 kts | 258° |
| 2026-05-06 19:42 | 51.15033 | -0.19450 | 208 ft | 25 kts | 258° |
| 2026-05-06 19:42 | 51.14994 | -0.19735 | 207 ft | 27 kts | 257° |
| 2026-05-06 19:42 | 51.14951 | -0.20039 | 209 ft | 28 kts | 257° |
| 2026-05-06 19:43 | 51.14912 | -0.20321 | 211 ft | 27 kts | 257° |
| 2026-05-06 19:43 | 51.14870 | -0.20629 | 207 ft | 30 kts | 258° |
| 2026-05-06 19:43 | 51.14831 | -0.20907 | 205 ft | 22 kts | 257° |
| 2026-05-06 19:43 | 51.14799 | -0.21134 | 211 ft | 16 kts | 254° |
| 2026-05-06 19:44 | 51.14768 | -0.21285 | 211 ft | 16 kts | 261° |
| 2026-05-06 19:44 | 51.14763 | -0.21330 | 205 ft | 0 kts | 259° |
| 2026-05-06 19:44 | 51.14757 | -0.21369 | 207 ft | 8 kts | 250° |
| 2026-05-06 19:44 | 51.14723 | -0.21408 | 210 ft | 8 kts | 188° |
| 2026-05-06 19:45 | 51.14708 | -0.21404 | 209 ft | 0 kts | 166° |
| 2026-05-06 19:45 | 51.14682 | -0.21391 | 205 ft | 11 kts | 155° |
| 2026-05-06 19:46 | 51.14625 | -0.21333 | 210 ft | 4 kts | 168° |
| 2026-05-06 19:47 | 51.14620 | -0.21331 | 208 ft | 4 kts | 168° |
| 2026-05-06 19:48 | 51.14545 | -0.21280 | 211 ft | 16 kts | 135° |
| 2026-05-06 19:48 | 51.14522 | -0.21158 | 206 ft | 0 kts | 76° |
| 2026-05-06 19:49 | 51.14536 | -0.21066 | 209 ft | 36 kts | 77° |
| 2026-05-06 19:49 | 51.14642 | -0.20285 | 215 ft | 105 kts | 77° |
| 2026-05-06 19:49 | 51.14838 | -0.18863 | 237 ft | 152 kts | 78° |
| 2026-05-06 19:50 | 51.15063 | -0.17148 | 648 ft | 165 kts | 78° |
| 2026-05-06 19:50 | 51.15290 | -0.15308 | 1235 ft | 171 kts | 76° |
| 2026-05-06 19:50 | 51.15539 | -0.13528 | 1776 ft | 154 kts | 74° |
| 2026-05-06 19:50 | 51.15796 | -0.11794 | 1996 ft | 178 kts | 73° |
| 2026-05-06 19:51 | 51.16120 | -0.09625 | 1981 ft | 222 kts | 75° |
| 2026-05-06 19:51 | 51.16484 | -0.07029 | 2002 ft | 248 kts | 76° |
| 2026-05-06 19:51 | 51.16818 | -0.04342 | 1999 ft | 251 kts | 81° |
| 2026-05-06 19:51 | 51.16879 | -0.01542 | 2004 ft | 254 kts | 90° |
| 2026-05-06 19:52 | 51.16809 | 0.01281 | 1981 ft | 256 kts | 90° |
| 2026-05-06 19:52 | 51.16751 | 0.04127 | 2291 ft | 257 kts | 90° |
| 2026-05-06 19:52 | 51.16698 | 0.06991 | 2799 ft | 258 kts | 90° |
| 2026-05-06 19:52 | 51.16646 | 0.09842 | 3055 ft | 258 kts | 90° |
| 2026-05-06 19:53 | 51.16595 | 0.12674 | 3309 ft | 258 kts | 90° |
| 2026-05-06 19:53 | 51.16540 | 0.15550 | 3556 ft | 261 kts | 90° |
| 2026-05-06 19:53 | 51.16518 | 0.18453 | 3818 ft | 263 kts | 88° |
| 2026-05-06 19:53 | 51.16533 | 0.21386 | 4076 ft | 266 kts | 88° |
| 2026-05-06 19:54 | 51.16555 | 0.24342 | 4339 ft | 266 kts | 88° |
| 2026-05-06 19:54 | 51.16573 | 0.27282 | 4598 ft | 269 kts | 89° |
| 2026-05-06 19:54 | 51.16583 | 0.30278 | 4856 ft | 272 kts | 89° |
| 2026-05-06 19:54 | 51.16588 | 0.33309 | 4961 ft | 274 kts | 89° |
| 2026-05-06 19:55 | 51.16593 | 0.36334 | 4973 ft | 271 kts | 89° |
| 2026-05-06 19:55 | 51.16596 | 0.39342 | 4973 ft | 271 kts | 89° |
| 2026-05-06 19:55 | 51.16597 | 0.42365 | 4973 ft | 273 kts | 89° |
| 2026-05-06 19:55 | 51.16597 | 0.45389 | 4974 ft | 274 kts | 89° |
| 2026-05-06 19:56 | 51.16598 | 0.47385 | 4973 ft | 271 kts | 89° |
| 2026-05-06 19:56 | 51.16710 | 0.51332 | 4971 ft | 269 kts | 74° |
| 2026-05-06 19:56 | 51.17558 | 0.53953 | 4974 ft | 268 kts | 46° |
| 2026-05-06 19:56 | 51.18507 | 0.55204 | 4963 ft | 266 kts | 28° |
| 2026-05-06 19:57 | 51.20243 | 0.56165 | 4848 ft | 265 kts | 12° |
| 2026-05-06 19:57 | 51.22615 | 0.56968 | 4760 ft | 260 kts | 9° |
| 2026-05-06 19:57 | 51.24396 | 0.57548 | 4898 ft | 263 kts | 10° |
| 2026-05-06 19:57 | 51.25588 | 0.57954 | 4980 ft | 264 kts | 11° |
| 2026-05-06 19:58 | 51.27389 | 0.58593 | 5108 ft | 263 kts | 12° |
| 2026-05-06 19:58 | 51.29180 | 0.59251 | 5237 ft | 263 kts | 12° |
| 2026-05-06 19:58 | 51.30973 | 0.59919 | 5444 ft | 265 kts | 12° |
| 2026-05-06 19:58 | 51.32774 | 0.60592 | 5706 ft | 266 kts | 12° |
| 2026-05-06 19:59 | 51.34576 | 0.61264 | 5967 ft | 265 kts | 13° |
| 2026-05-06 19:59 | 51.36382 | 0.61938 | 6018 ft | 267 kts | 13° |
| 2026-05-06 19:59 | 51.38169 | 0.62608 | 6019 ft | 267 kts | 13° |
| 2026-05-06 19:59 | 51.39978 | 0.63288 | 6017 ft | 265 kts | 13° |
| 2026-05-06 20:00 | 51.41782 | 0.63973 | 6093 ft | 269 kts | 13° |
| 2026-05-06 20:00 | 51.43621 | 0.64671 | 6646 ft | 273 kts | 13° |
| 2026-05-06 20:00 | 51.45465 | 0.65376 | 7823 ft | 271 kts | 12° |
| 2026-05-06 20:00 | 51.47317 | 0.66088 | 8930 ft | 277 kts | 12° |
| 2026-05-06 20:01 | 51.49195 | 0.66805 | 9947 ft | 283 kts | 12° |
| 2026-05-06 20:01 | 51.51155 | 0.67552 | 10705 ft | 299 kts | 12° |
| 2026-05-06 20:01 | 51.53259 | 0.68350 | 11142 ft | 323 kts | 12° |
| 2026-05-06 20:01 | 51.55503 | 0.69203 | 11766 ft | 337 kts | 12° |
| 2026-05-06 20:02 | 51.57800 | 0.70082 | 12727 ft | 340 kts | 12° |
| 2026-05-06 20:02 | 51.60118 | 0.70968 | 13698 ft | 344 kts | 12° |
| 2026-05-06 20:02 | 51.62467 | 0.71865 | 14518 ft | 350 kts | 12° |
| 2026-05-06 20:02 | 51.64855 | 0.72776 | 15318 ft | 355 kts | 12° |
| 2026-05-06 20:03 | 51.67244 | 0.73689 | 16104 ft | 360 kts | 12° |
| 2026-05-06 20:03 | 51.69699 | 0.74628 | 16886 ft | 365 kts | 12° |
| 2026-05-06 20:03 | 51.72194 | 0.75583 | 17667 ft | 370 kts | 12° |
| 2026-05-06 20:03 | 51.74731 | 0.76518 | 18416 ft | 375 kts | 7° |
| 2026-05-06 20:04 | 51.77323 | 0.77087 | 19094 ft | 379 kts | 8° |
| 2026-05-06 20:04 | 51.79880 | 0.78252 | 19780 ft | 386 kts | 20° |
| 2026-05-06 20:04 | 51.82246 | 0.80272 | 20462 ft | 392 kts | 31° |
| 2026-05-06 20:04 | 51.84456 | 0.82930 | 21133 ft | 398 kts | 40° |
| 2026-05-06 20:05 | 51.86281 | 0.86356 | 21789 ft | 405 kts | 55° |
| 2026-05-06 20:05 | 51.87666 | 0.90362 | 22428 ft | 411 kts | 63° |
| 2026-05-06 20:05 | 51.88840 | 0.94643 | 23095 ft | 416 kts | 66° |
| 2026-05-06 20:05 | 51.89936 | 0.99008 | 23711 ft | 421 kts | 67° |
| 2026-05-06 20:06 | 51.91014 | 1.03368 | 24253 ft | 424 kts | 67° |
| 2026-05-06 20:06 | 51.92123 | 1.07815 | 24818 ft | 427 kts | 67° |
| 2026-05-06 20:06 | 51.93254 | 1.12306 | 25360 ft | 431 kts | 67° |
| 2026-05-06 20:06 | 51.94398 | 1.16822 | 25886 ft | 434 kts | 67° |
| 2026-05-06 20:07 | 51.95553 | 1.21369 | 26407 ft | 437 kts | 67° |
| 2026-05-06 20:07 | 51.96714 | 1.25945 | 26917 ft | 441 kts | 67° |
| 2026-05-06 20:07 | 51.97884 | 1.30566 | 27405 ft | 444 kts | 67° |
| 2026-05-06 20:07 | 51.99060 | 1.35220 | 27884 ft | 447 kts | 67° |
| 2026-05-06 20:08 | 52.00231 | 1.39863 | 28343 ft | 450 kts | 67° |
| 2026-05-06 20:08 | 52.01421 | 1.44590 | 28786 ft | 454 kts | 67° |
| 2026-05-06 20:08 | 52.02617 | 1.49355 | 29218 ft | 457 kts | 67° |
| 2026-05-06 20:08 | 52.03823 | 1.54165 | 29643 ft | 460 kts | 67° |
| 2026-05-06 20:09 | 52.05037 | 1.59020 | 29976 ft | 465 kts | 67° |
| 2026-05-06 20:09 | 52.06254 | 1.63901 | 30371 ft | 467 kts | 67° |
| 2026-05-06 20:09 | 52.07460 | 1.68745 | 30743 ft | 469 kts | 68° |
| 2026-05-06 20:09 | 52.08688 | 1.73692 | 31115 ft | 472 kts | 68° |
| 2026-05-06 20:10 | 52.09917 | 1.78651 | 31552 ft | 472 kts | 68° |
| 2026-05-06 20:10 | 52.11147 | 1.83623 | 32046 ft | 471 kts | 68° |
| 2026-05-06 20:10 | 52.12355 | 1.88523 | 32525 ft | 471 kts | 68° |
| 2026-05-06 20:10 | 52.13575 | 1.93479 | 33005 ft | 470 kts | 68° |
| 2026-05-06 20:11 | 52.14792 | 1.98437 | 33495 ft | 468 kts | 68° |
| 2026-05-06 20:11 | 52.15996 | 2.03350 | 34017 ft | 466 kts | 68° |
| 2026-05-06 20:11 | 52.17183 | 2.08204 | 34367 ft | 466 kts | 68° |
| 2026-05-06 20:11 | 52.18381 | 2.13117 | 34704 ft | 466 kts | 68° |
| 2026-05-06 20:12 | 52.19576 | 2.18028 | 35025 ft | 466 kts | 68° |
| 2026-05-06 20:12 | 52.20772 | 2.22954 | 35345 ft | 466 kts | 68° |
| 2026-05-06 20:12 | 52.21968 | 2.27891 | 35666 ft | 466 kts | 68° |
| 2026-05-06 20:12 | 52.23160 | 2.32819 | 35968 ft | 467 kts | 68° |
| 2026-05-06 20:13 | 52.24347 | 2.37743 | 36264 ft | 467 kts | 68° |
| 2026-05-06 20:13 | 52.25523 | 2.42630 | 36543 ft | 467 kts | 68° |
| 2026-05-06 20:13 | 52.26713 | 2.47586 | 36828 ft | 468 kts | 68° |
| 2026-05-06 20:13 | 52.27891 | 2.52505 | 37025 ft | 470 kts | 68° |
| 2026-05-06 20:14 | 52.29080 | 2.57478 | 37346 ft | 469 kts | 68° |
| 2026-05-06 20:14 | 52.30268 | 2.62466 | 37588 ft | 470 kts | 69° |
| 2026-05-06 20:14 | 52.31282 | 2.67552 | 37904 ft | 469 kts | 75° |
| 2026-05-06 20:14 | 52.32161 | 2.72641 | 38122 ft | 470 kts | 74° |
| 2026-05-06 20:15 | 52.33074 | 2.77794 | 38407 ft | 469 kts | 74° |
| 2026-05-06 20:15 | 52.33987 | 2.82931 | 38628 ft | 470 kts | 74° |
| 2026-05-06 20:15 | 52.34894 | 2.88070 | 38839 ft | 469 kts | 74° |
| 2026-05-06 20:15 | 52.35797 | 2.93213 | 38977 ft | 470 kts | 74° |
| 2026-05-06 20:16 | 52.37581 | 3.03460 | 38990 ft | 471 kts | 74° |
| 2026-05-06 20:16 | 52.39693 | 3.13619 | 38991 ft | 471 kts | 65° |
| 2026-05-06 20:17 | 52.42810 | 3.22939 | 38989 ft | 470 kts | 55° |
| 2026-05-06 20:17 | 52.46688 | 3.31568 | 38989 ft | 469 kts | 52° |
| 2026-05-06 20:18 | 52.50599 | 3.40183 | 38987 ft | 470 kts | 52° |
| 2026-05-06 20:18 | 52.54486 | 3.48746 | 38990 ft | 470 kts | 52° |
| 2026-05-06 20:19 | 52.58404 | 3.57399 | 38990 ft | 471 kts | 52° |
| 2026-05-06 20:19 | 52.62312 | 3.66067 | 38994 ft | 471 kts | 52° |
| 2026-05-06 20:20 | 52.66189 | 3.74697 | 38993 ft | 470 kts | 53° |
| 2026-05-06 20:20 | 52.70067 | 3.83361 | 38992 ft | 470 kts | 52° |
| 2026-05-06 20:21 | 52.73952 | 3.92068 | 38998 ft | 470 kts | 53° |
| 2026-05-06 20:21 | 52.77809 | 4.00743 | 38998 ft | 470 kts | 53° |
| 2026-05-06 20:22 | 52.81683 | 4.09486 | 38994 ft | 470 kts | 53° |
| 2026-05-06 20:22 | 52.85516 | 4.18166 | 38993 ft | 470 kts | 53° |
| 2026-05-06 20:23 | 52.89380 | 4.26947 | 38992 ft | 470 kts | 53° |
| 2026-05-06 20:23 | 52.93230 | 4.35725 | 39002 ft | 471 kts | 53° |
| 2026-05-06 20:24 | 52.97062 | 4.44492 | 38986 ft | 471 kts | 53° |
| 2026-05-06 20:24 | 53.00922 | 4.53356 | 38987 ft | 472 kts | 53° |
| 2026-05-06 20:25 | 53.04733 | 4.62135 | 38990 ft | 472 kts | 53° |
| 2026-05-06 20:25 | 53.08578 | 4.71025 | 38996 ft | 472 kts | 53° |
| 2026-05-06 20:26 | 53.12390 | 4.79872 | 38993 ft | 472 kts | 53° |
| 2026-05-06 20:26 | 53.16208 | 4.88760 | 39000 ft | 472 kts | 53° |
| 2026-05-06 20:27 | 53.20027 | 4.97683 | 38992 ft | 472 kts | 54° |
| 2026-05-06 20:27 | 53.23846 | 5.06638 | 38992 ft | 472 kts | 54° |
| 2026-05-06 20:28 | 53.27628 | 5.15537 | 38989 ft | 472 kts | 54° |
| 2026-05-06 20:28 | 53.31429 | 5.24513 | 38993 ft | 473 kts | 54° |
| 2026-05-06 20:29 | 53.35215 | 5.33487 | 38992 ft | 472 kts | 54° |
| 2026-05-06 20:29 | 53.39001 | 5.42491 | 38988 ft | 472 kts | 54° |
| 2026-05-06 20:30 | 53.44665 | 5.56022 | 38991 ft | 472 kts | 54° |
| 2026-05-06 20:31 | 53.48430 | 5.65055 | 38980 ft | 472 kts | 54° |
| 2026-05-06 20:31 | 53.52185 | 5.74100 | 38977 ft | 467 kts | 54° |
| 2026-05-06 20:31 | 53.53987 | 5.78452 | 38977 ft | 451 kts | 54° |
| 2026-05-06 20:32 | 53.55787 | 5.82806 | 38969 ft | 455 kts | 54° |
| 2026-05-06 20:32 | 53.59450 | 5.91689 | 38974 ft | 466 kts | 54° |
| 2026-05-06 20:33 | 53.63183 | 6.00773 | 38972 ft | 475 kts | 54° |
| 2026-05-06 20:33 | 53.66915 | 6.09891 | 38970 ft | 473 kts | 54° |
| 2026-05-06 20:34 | 53.70658 | 6.19067 | 38979 ft | 474 kts | 55° |
| 2026-05-06 20:34 | 53.74372 | 6.28207 | 38972 ft | 474 kts | 55° |
| 2026-05-06 20:35 | 53.78102 | 6.37416 | 38979 ft | 474 kts | 55° |
| 2026-05-06 20:35 | 53.81827 | 6.46651 | 38976 ft | 474 kts | 55° |
| 2026-05-06 20:36 | 53.85549 | 6.55911 | 38978 ft | 475 kts | 55° |